Capt. Gary E. Moss — WDH7389 — position and weather

sailwx.info

Track history (hours):
 
Tides and Currents Weather Stations Pressure Air Temp Water Temp Dewpoint Dewpoint Depression Visibility Wind Speed Wind Dir Waves Ship Positions

Capt. Gary E. Moss

Owner: Blessey Enterprises, Inc., Harahan, LA. More information available from US FCC via Universal Licensing System and Coast Guard Vessel Documentation Center.

Last reported at 2017-Nov-06 23:07 UTC. Time now 2017-Nov-19 05:08 UTC.
Position N 29°50' W 091°57'.
Warning: this ship's position is 12 days out of date.

Length 26 m.

Type: Towing. MMSI: 367647650.

Date/timePositionNaut miles runAvg speedWind from/ knotsBaromVisibWave heightAir tempDewpointWater temp
2017-Nov-06 23:07N 29°50' W 091°57'1 5.3
2017-Nov-06 23:00N 29°50' W 091°58'2 4.9
2017-Nov-06 22:30N 29°49' W 092°01'2 5.0
2017-Nov-06 22:01N 29°49' W 092°04'3 5.1
2017-Nov-06 21:31N 29°48' W 092°06'3 5.3
2017-Nov-06 21:01N 29°47' W 092°09'3 5.1
2017-Nov-06 20:31N 29°47' W 092°12'62 3.4
2017-Nov-06 02:31N 30°04' W 093°21'1 2.6
2017-Nov-06 02:01N 30°04' W 093°23'0 0.9
2017-Nov-06 01:31N 30°04' W 093°23'2 3.2
2017-Nov-06 01:01N 30°04' W 093°25'2 4.9
2017-Nov-06 00:31N 30°04' W 093°28'3 5.0
2017-Nov-06 00:00N 30°04' W 093°31'78 4.2
2017-Nov-05 05:14N 29°30' W 094°52'2 6.8
2017-Nov-05 05:00N 29°31' W 094°53'3 6.7
2017-Nov-05 04:30N 29°34' W 094°55'3 6.7
2017-Nov-05 04:00N 29°36' W 094°57'3 6.6
2017-Nov-05 03:30N 29°37' W 095°01'0 0.8
2017-Nov-05 03:00N 29°37' W 095°01'0 0.0
2017-Nov-05 02:30N 29°37' W 095°01'0 0.3
2017-Nov-05 02:00N 29°37' W 095°01'0 0.0
2017-Nov-05 01:30N 29°37' W 095°01'0 0.1
2017-Nov-05 01:00N 29°37' W 095°01'0 0.1
2017-Nov-05 00:30N 29°37' W 095°02'0 0.0
2017-Nov-05 00:00N 29°37' W 095°02'0 0.0
2017-Nov-04 23:30N 29°37' W 095°02'0 0.0
2017-Nov-04 23:00N 29°37' W 095°02'0 0.0
2017-Nov-04 22:30N 29°37' W 095°02'0 0.0
2017-Nov-04 22:00N 29°37' W 095°02'0 0.0
2017-Nov-04 21:30N 29°37' W 095°02'0 0.0
2017-Nov-04 21:00N 29°37' W 095°02'0 0.0
2017-Nov-04 20:30N 29°37' W 095°02'0 0.0
2017-Nov-04 20:00N 29°37' W 095°02'0 0.0
2017-Nov-04 19:30N 29°37' W 095°02'0 0.0
2017-Nov-04 19:00N 29°37' W 095°02'0 0.0
2017-Nov-04 18:30N 29°37' W 095°02'0 0.0
2017-Nov-04 18:00N 29°37' W 095°02'0 0.0
2017-Nov-04 17:30N 29°37' W 095°02'0 0.0
2017-Nov-04 17:00N 29°37' W 095°02'0 0.0
2017-Nov-04 16:30N 29°37' W 095°02'0 0.0
2017-Nov-04 16:00N 29°37' W 095°02'0 0.1
2017-Nov-04 15:30N 29°37' W 095°01'0 0.4
2017-Nov-04 15:01N 29°37' W 095°01'0 0.6
2017-Nov-04 14:30N 29°37' W 095°01'0 0.3
2017-Nov-04 14:00N 29°37' W 095°01'0 0.1
2017-Nov-04 13:30N 29°37' W 095°02'0 0.0
2017-Nov-04 13:00N 29°37' W 095°02'0 0.0
2017-Nov-04 12:30N 29°37' W 095°02'0 0.0
2017-Nov-04 12:00N 29°37' W 095°02'0 0.0
2017-Nov-04 11:30N 29°37' W 095°02'0 0.0
2017-Nov-04 11:00N 29°37' W 095°02'0 0.0
2017-Nov-04 10:30N 29°37' W 095°02'0 0.0
2017-Nov-04 10:00N 29°37' W 095°02'0 0.0
2017-Nov-04 09:30N 29°37' W 095°02'0 0.0
2017-Nov-04 09:00N 29°37' W 095°02'0 0.0
2017-Nov-04 08:30N 29°37' W 095°02'0 0.0
2017-Nov-04 08:00N 29°37' W 095°02'0 0.1
2017-Nov-04 07:30N 29°37' W 095°01'0 0.1
2017-Nov-04 07:00N 29°37' W 095°02'0 0.0
2017-Nov-04 06:30N 29°37' W 095°02'0 0.0
2017-Nov-04 06:00N 29°37' W 095°02'0 0.0
2017-Nov-04 05:30N 29°37' W 095°02'0 0.0
2017-Nov-04 05:00N 29°37' W 095°02'0 0.0
2017-Nov-04 04:30N 29°37' W 095°02'0 0.0
2017-Nov-04 04:00N 29°37' W 095°02'0 0.0
2017-Nov-04 03:30N 29°37' W 095°02'0 0.0
2017-Nov-04 03:00N 29°37' W 095°02'0 0.0
2017-Nov-04 02:30N 29°37' W 095°02'0 0.0
2017-Nov-04 02:00N 29°37' W 095°02'0 0.0
2017-Nov-04 01:30N 29°37' W 095°02'0 0.0
2017-Nov-04 01:00N 29°37' W 095°02'0 0.0
2017-Nov-04 00:30N 29°37' W 095°02'0 0.0
2017-Nov-04 00:00N 29°37' W 095°02'0 0.0
2017-Nov-03 23:30N 29°37' W 095°02'0 0.0
2017-Nov-03 23:00N 29°37' W 095°02'0 0.0
2017-Nov-03 22:30N 29°37' W 095°02'0 0.0
2017-Nov-03 22:00N 29°37' W 095°02'0 0.0
2017-Nov-03 21:30N 29°37' W 095°02'0 0.0
2017-Nov-03 21:00N 29°37' W 095°02'0 0.0
2017-Nov-03 20:30N 29°37' W 095°02'0 0.3
2017-Nov-03 20:00N 29°37' W 095°01'0 0.2
2017-Nov-03 19:30N 29°37' W 095°01'0 0.4
2017-Nov-03 19:00N 29°37' W 095°01'1 1.5
2017-Nov-03 18:30N 29°37' W 095°01'3 5.4
2017-Nov-03 18:00N 29°38' W 094°58'4 8.4
2017-Nov-03 17:30N 29°42' W 094°60'4 7.2
2017-Nov-03 17:00N 29°44' W 095°03'4 0.7
2017-Nov-03 11:53N 29°47' W 095°05'0 0.0
2017-Nov-02 22:29N 29°47' W 095°05'0 0.1
2017-Nov-02 21:57N 29°47' W 095°05'0 0.0
2017-Nov-01 23:22N 29°47' W 095°05'0 0.0
2017-Nov-01 22:00N 29°47' W 095°05'4 0.2
2017-Nov-01 02:00N 29°44' W 095°03'0 0.0
2017-Nov-01 01:30N 29°44' W 095°03'0 0.0
2017-Nov-01 01:00N 29°44' W 095°03'0 0.0
2017-Nov-01 00:30N 29°44' W 095°03'0 0.0
2017-Nov-01 00:00N 29°44' W 095°03'0 0.0
2017-Oct-31 23:30N 29°44' W 095°03'0 0.0
2017-Oct-31 23:00N 29°44' W 095°03'0 0.0
2017-Oct-31 22:30N 29°44' W 095°03'0 0.0
2017-Oct-31 22:00N 29°44' W 095°03'0 0.0
2017-Oct-31 21:30N 29°44' W 095°03'0 0.0
2017-Oct-31 21:00N 29°44' W 095°03'0 0.0
2017-Oct-31 20:30N 29°44' W 095°03'0 0.0
2017-Oct-31 20:00N 29°44' W 095°03'0 0.0
2017-Oct-31 19:30N 29°44' W 095°03'0 0.0
2017-Oct-31 19:00N 29°44' W 095°03'0 0.0
2017-Oct-31 18:30N 29°44' W 095°03'0 0.0
2017-Oct-31 18:00N 29°44' W 095°03'0 0.0
2017-Oct-31 17:30N 29°44' W 095°03'0 0.0
2017-Oct-31 17:00N 29°44' W 095°03'0 0.0
2017-Oct-31 16:30N 29°44' W 095°03'0 0.0
2017-Oct-31 16:00N 29°44' W 095°03'0 0.0
2017-Oct-31 15:30N 29°44' W 095°03'0 0.0
2017-Oct-31 15:00N 29°44' W 095°03'0 0.0
2017-Oct-31 14:30N 29°44' W 095°03'0 0.0
2017-Oct-31 14:00N 29°44' W 095°03'0 0.0
2017-Oct-31 13:30N 29°44' W 095°03'0 0.0
2017-Oct-31 13:00N 29°44' W 095°03'0 0.0
2017-Oct-31 12:30N 29°44' W 095°03'0 0.0
2017-Oct-31 12:00N 29°44' W 095°03'0 0.0
2017-Oct-31 11:30N 29°44' W 095°03'0 0.1
2017-Oct-31 11:00N 29°44' W 095°03'0 0.1
2017-Oct-31 10:28N 29°44' W 095°03'0 0.0
2017-Oct-31 09:47N 29°44' W 095°03'0 0.1
2017-Oct-31 09:30N 29°44' W 095°03'0 0.0
2017-Oct-31 09:00N 29°44' W 095°03'0 0.0
2017-Oct-31 08:30N 29°44' W 095°03'0 0.0
2017-Oct-31 08:00N 29°44' W 095°03'0 0.0
2017-Oct-31 07:30N 29°44' W 095°03'0 0.0
2017-Oct-31 07:00N 29°44' W 095°03'0 0.0
2017-Oct-31 06:30N 29°44' W 095°03'0 0.0
2017-Oct-31 06:00N 29°44' W 095°03'0 0.0
2017-Oct-31 05:30N 29°44' W 095°03'0 0.0
2017-Oct-31 05:00N 29°44' W 095°03'0 0.0
2017-Oct-31 04:30N 29°44' W 095°03'0 0.0
2017-Oct-31 04:00N 29°44' W 095°03'0 0.0
2017-Oct-31 03:30N 29°44' W 095°03'0 0.0
2017-Oct-31 03:00N 29°44' W 095°03'0 0.0
2017-Oct-31 02:30N 29°44' W 095°03'0 0.0
2017-Oct-31 02:00N 29°44' W 095°03'0 0.0
2017-Oct-31 01:30N 29°44' W 095°03'0 0.0
2017-Oct-31 01:00N 29°44' W 095°03'0 0.0
2017-Oct-31 00:30N 29°44' W 095°03'0 0.0
2017-Oct-31 00:00N 29°44' W 095°03'0 0.0
2017-Oct-30 23:30N 29°44' W 095°03'0 0.0
2017-Oct-30 23:00N 29°44' W 095°03'0 0.3
2017-Oct-30 22:30N 29°44' W 095°03'2 3.3
2017-Oct-30 21:54N 29°46' W 095°04'2 3.5
2017-Oct-30 21:25N 29°45' W 095°06'2 4.0
2017-Oct-30 20:57N 29°44' W 095°08'2 4.0
2017-Oct-30 20:23N 29°45' W 095°11'2 4.1
2017-Oct-30 20:00N 29°44' W 095°12'1 0.2
2017-Oct-30 11:38N 29°44' W 095°14'0 0.0
2017-Oct-30 11:30N 29°44' W 095°14'0 0.0
2017-Oct-30 11:00N 29°44' W 095°14'0 0.0
2017-Oct-30 10:30N 29°44' W 095°14'0 0.0
2017-Oct-30 10:00N 29°44' W 095°14'0 0.0
2017-Oct-30 09:30N 29°44' W 095°14'0 0.0
2017-Oct-30 08:58N 29°44' W 095°14'0 0.0
2017-Oct-30 07:54N 29°44' W 095°14'0 0.0
2017-Oct-30 07:28N 29°44' W 095°14'0 0.0
2017-Oct-30 07:00N 29°44' W 095°14'0 0.0
2017-Oct-30 06:30N 29°44' W 095°14'0 0.0
2017-Oct-30 06:00N 29°44' W 095°14'0 0.0
2017-Oct-30 05:30N 29°44' W 095°14'0 0.0
2017-Oct-30 05:00N 29°44' W 095°14'0 0.0
2017-Oct-30 04:30N 29°44' W 095°14'0 0.0
2017-Oct-30 04:00N 29°44' W 095°14'0 0.0
2017-Oct-30 03:30N 29°44' W 095°14'0 0.0
2017-Oct-30 03:00N 29°44' W 095°14'0 0.0
2017-Oct-30 02:30N 29°44' W 095°14'0 0.0
2017-Oct-30 02:00N 29°44' W 095°14'0 0.1
2017-Oct-30 01:30N 29°44' W 095°14'0 0.0
2017-Oct-30 01:00N 29°44' W 095°14'1 1.5
2017-Oct-30 00:23N 29°44' W 095°13'1 2.8
2017-Oct-29 23:58N 29°45' W 095°12'2 3.4
2017-Oct-29 23:30N 29°45' W 095°10'2 4.0
2017-Oct-29 22:59N 29°44' W 095°07'2 4.7
2017-Oct-29 22:29N 29°46' W 095°05'1 0.4
2017-Oct-29 21:06N 29°46' W 095°05'1 5.7
2017-Oct-29 21:00N 29°45' W 095°04'2 3.5
2017-Oct-29 20:29N 29°44' W 095°03'0 0.0
2017-Oct-29 15:42N 29°44' W 095°03'0 0.0
2017-Oct-29 15:27N 29°44' W 095°03'0 0.0
2017-Oct-29 14:06N 29°44' W 095°03'0 0.0
2017-Oct-29 13:53N 29°44' W 095°03'4 0.1
2017-Oct-28 06:54N 29°47' W 095°05'0 0.0
2017-Oct-28 06:02N 29°47' W 095°05'0 0.3
2017-Oct-28 05:55N 29°47' W 095°05'0 0.0
2017-Oct-28 03:45N 29°47' W 095°05'0 0.0
2017-Oct-28 03:30N 29°47' W 095°05'2 0.7
2017-Oct-28 01:08N 29°46' W 095°05'1 6.1
2017-Oct-28 00:55N 29°45' W 095°06'0 0.0
2017-Oct-28 00:29N 29°45' W 095°06'  
Track history (hours):
 
Tides and Currents Weather Stations Pressure Air Temp Water Temp Dewpoint Dewpoint Depression Visibility Wind Speed Wind Dir Waves Ship Positions

Capt. Gary E. Moss

Owner: Blessey Enterprises, Inc., Harahan, LA. More information available from US FCC via Universal Licensing System and Coast Guard Vessel Documentation Center.

Last reported at 2017-Nov-06 23:07 UTC. Time now 2017-Nov-19 05:08 UTC.
Position N 29°50' W 091°57'.
Warning: this ship's position is 12 days out of date.

Length 26 m.

Type: Towing. MMSI: 367647650.

Date/timePositionNaut miles runAvg speedWind from/ knotsBaromVisibWave heightAir tempDewpointWater temp
2017-Nov-06 23:07N 29°50' W 091°57'1 5.3
2017-Nov-06 23:00N 29°50' W 091°58'2 4.9
2017-Nov-06 22:30N 29°49' W 092°01'2 5.0
2017-Nov-06 22:01N 29°49' W 092°04'3 5.1
2017-Nov-06 21:31N 29°48' W 092°06'3 5.3
2017-Nov-06 21:01N 29°47' W 092°09'3 5.1
2017-Nov-06 20:31N 29°47' W 092°12'62 3.4
2017-Nov-06 02:31N 30°04' W 093°21'1 2.6
2017-Nov-06 02:01N 30°04' W 093°23'0 0.9
2017-Nov-06 01:31N 30°04' W 093°23'2 3.2
2017-Nov-06 01:01N 30°04' W 093°25'2 4.9
2017-Nov-06 00:31N 30°04' W 093°28'3 5.0
2017-Nov-06 00:00N 30°04' W 093°31'78 4.2
2017-Nov-05 05:14N 29°30' W 094°52'2 6.8
2017-Nov-05 05:00N 29°31' W 094°53'3 6.7
2017-Nov-05 04:30N 29°34' W 094°55'3 6.7
2017-Nov-05 04:00N 29°36' W 094°57'3 6.6
2017-Nov-05 03:30N 29°37' W 095°01'0 0.8
2017-Nov-05 03:00N 29°37' W 095°01'0 0.0
2017-Nov-05 02:30N 29°37' W 095°01'0 0.3
2017-Nov-05 02:00N 29°37' W 095°01'0 0.0
2017-Nov-05 01:30N 29°37' W 095°01'0 0.1
2017-Nov-05 01:00N 29°37' W 095°01'0 0.1
2017-Nov-05 00:30N 29°37' W 095°02'0 0.0
2017-Nov-05 00:00N 29°37' W 095°02'0 0.0
2017-Nov-04 23:30N 29°37' W 095°02'0 0.0
2017-Nov-04 23:00N 29°37' W 095°02'0 0.0
2017-Nov-04 22:30N 29°37' W 095°02'0 0.0
2017-Nov-04 22:00N 29°37' W 095°02'0 0.0
2017-Nov-04 21:30N 29°37' W 095°02'0 0.0
2017-Nov-04 21:00N 29°37' W 095°02'0 0.0
2017-Nov-04 20:30N 29°37' W 095°02'0 0.0
2017-Nov-04 20:00N 29°37' W 095°02'0 0.0
2017-Nov-04 19:30N 29°37' W 095°02'0 0.0
2017-Nov-04 19:00N 29°37' W 095°02'0 0.0
2017-Nov-04 18:30N 29°37' W 095°02'0 0.0
2017-Nov-04 18:00N 29°37' W 095°02'0 0.0
2017-Nov-04 17:30N 29°37' W 095°02'0 0.0
2017-Nov-04 17:00N 29°37' W 095°02'0 0.0
2017-Nov-04 16:30N 29°37' W 095°02'0 0.0
2017-Nov-04 16:00N 29°37' W 095°02'0 0.1
2017-Nov-04 15:30N 29°37' W 095°01'0 0.4
2017-Nov-04 15:01N 29°37' W 095°01'0 0.6
2017-Nov-04 14:30N 29°37' W 095°01'0 0.3
2017-Nov-04 14:00N 29°37' W 095°01'0 0.1
2017-Nov-04 13:30N 29°37' W 095°02'0 0.0
2017-Nov-04 13:00N 29°37' W 095°02'0 0.0
2017-Nov-04 12:30N 29°37' W 095°02'0 0.0
2017-Nov-04 12:00N 29°37' W 095°02'0 0.0
2017-Nov-04 11:30N 29°37' W 095°02'0 0.0
2017-Nov-04 11:00N 29°37' W 095°02'0 0.0
2017-Nov-04 10:30N 29°37' W 095°02'0 0.0
2017-Nov-04 10:00N 29°37' W 095°02'0 0.0
2017-Nov-04 09:30N 29°37' W 095°02'0 0.0
2017-Nov-04 09:00N 29°37' W 095°02'0 0.0
2017-Nov-04 08:30N 29°37' W 095°02'0 0.0
2017-Nov-04 08:00N 29°37' W 095°02'0 0.1
2017-Nov-04 07:30N 29°37' W 095°01'0 0.1
2017-Nov-04 07:00N 29°37' W 095°02'0 0.0
2017-Nov-04 06:30N 29°37' W 095°02'0 0.0
2017-Nov-04 06:00N 29°37' W 095°02'0 0.0
2017-Nov-04 05:30N 29°37' W 095°02'0 0.0
2017-Nov-04 05:00N 29°37' W 095°02'0 0.0
2017-Nov-04 04:30N 29°37' W 095°02'0 0.0
2017-Nov-04 04:00N 29°37' W 095°02'0 0.0
2017-Nov-04 03:30N 29°37' W 095°02'0 0.0
2017-Nov-04 03:00N 29°37' W 095°02'0 0.0
2017-Nov-04 02:30N 29°37' W 095°02'0 0.0
2017-Nov-04 02:00N 29°37' W 095°02'0 0.0
2017-Nov-04 01:30N 29°37' W 095°02'0 0.0
2017-Nov-04 01:00N 29°37' W 095°02'0 0.0
2017-Nov-04 00:30N 29°37' W 095°02'0 0.0
2017-Nov-04 00:00N 29°37' W 095°02'0 0.0
2017-Nov-03 23:30N 29°37' W 095°02'0 0.0
2017-Nov-03 23:00N 29°37' W 095°02'0 0.0
2017-Nov-03 22:30N 29°37' W 095°02'0 0.0
2017-Nov-03 22:00N 29°37' W 095°02'0 0.0
2017-Nov-03 21:30N 29°37' W 095°02'0 0.0
2017-Nov-03 21:00N 29°37' W 095°02'0 0.0
2017-Nov-03 20:30N 29°37' W 095°02'0 0.3
2017-Nov-03 20:00N 29°37' W 095°01'0 0.2
2017-Nov-03 19:30N 29°37' W 095°01'0 0.4
2017-Nov-03 19:00N 29°37' W 095°01'1 1.5
2017-Nov-03 18:30N 29°37' W 095°01'3 5.4
2017-Nov-03 18:00N 29°38' W 094°58'4 8.4
2017-Nov-03 17:30N 29°42' W 094°60'4 7.2
2017-Nov-03 17:00N 29°44' W 095°03'4 0.7
2017-Nov-03 11:53N 29°47' W 095°05'0 0.0
2017-Nov-02 22:29N 29°47' W 095°05'0 0.1
2017-Nov-02 21:57N 29°47' W 095°05'0 0.0
2017-Nov-01 23:22N 29°47' W 095°05'0 0.0
2017-Nov-01 22:00N 29°47' W 095°05'4 0.2
2017-Nov-01 02:00N 29°44' W 095°03'0 0.0
2017-Nov-01 01:30N 29°44' W 095°03'0 0.0
2017-Nov-01 01:00N 29°44' W 095°03'0 0.0
2017-Nov-01 00:30N 29°44' W 095°03'0 0.0
2017-Nov-01 00:00N 29°44' W 095°03'0 0.0
2017-Oct-31 23:30N 29°44' W 095°03'0 0.0
2017-Oct-31 23:00N 29°44' W 095°03'0 0.0
2017-Oct-31 22:30N 29°44' W 095°03'0 0.0
2017-Oct-31 22:00N 29°44' W 095°03'0 0.0
2017-Oct-31 21:30N 29°44' W 095°03'0 0.0
2017-Oct-31 21:00N 29°44' W 095°03'0 0.0
2017-Oct-31 20:30N 29°44' W 095°03'0 0.0
2017-Oct-31 20:00N 29°44' W 095°03'0 0.0
2017-Oct-31 19:30N 29°44' W 095°03'0 0.0
2017-Oct-31 19:00N 29°44' W 095°03'0 0.0
2017-Oct-31 18:30N 29°44' W 095°03'0 0.0
2017-Oct-31 18:00N 29°44' W 095°03'0 0.0
2017-Oct-31 17:30N 29°44' W 095°03'0 0.0
2017-Oct-31 17:00N 29°44' W 095°03'0 0.0
2017-Oct-31 16:30N 29°44' W 095°03'0 0.0
2017-Oct-31 16:00N 29°44' W 095°03'0 0.0
2017-Oct-31 15:30N 29°44' W 095°03'0 0.0
2017-Oct-31 15:00N 29°44' W 095°03'0 0.0
2017-Oct-31 14:30N 29°44' W 095°03'0 0.0
2017-Oct-31 14:00N 29°44' W 095°03'0 0.0
2017-Oct-31 13:30N 29°44' W 095°03'0 0.0
2017-Oct-31 13:00N 29°44' W 095°03'0 0.0
2017-Oct-31 12:30N 29°44' W 095°03'0 0.0
2017-Oct-31 12:00N 29°44' W 095°03'0 0.0
2017-Oct-31 11:30N 29°44' W 095°03'0 0.1
2017-Oct-31 11:00N 29°44' W 095°03'0 0.1
2017-Oct-31 10:28N 29°44' W 095°03'0 0.0
2017-Oct-31 09:47N 29°44' W 095°03'0 0.1
2017-Oct-31 09:30N 29°44' W 095°03'0 0.0
2017-Oct-31 09:00N 29°44' W 095°03'0 0.0
2017-Oct-31 08:30N 29°44' W 095°03'0 0.0
2017-Oct-31 08:00N 29°44' W 095°03'0 0.0
2017-Oct-31 07:30N 29°44' W 095°03'0 0.0
2017-Oct-31 07:00N 29°44' W 095°03'0 0.0
2017-Oct-31 06:30N 29°44' W 095°03'0 0.0
2017-Oct-31 06:00N 29°44' W 095°03'0 0.0
2017-Oct-31 05:30N 29°44' W 095°03'0 0.0
2017-Oct-31 05:00N 29°44' W 095°03'0 0.0
2017-Oct-31 04:30N 29°44' W 095°03'0 0.0
2017-Oct-31 04:00N 29°44' W 095°03'0 0.0
2017-Oct-31 03:30N 29°44' W 095°03'0 0.0
2017-Oct-31 03:00N 29°44' W 095°03'0 0.0
2017-Oct-31 02:30N 29°44' W 095°03'0 0.0
2017-Oct-31 02:00N 29°44' W 095°03'0 0.0
2017-Oct-31 01:30N 29°44' W 095°03'0 0.0
2017-Oct-31 01:00N 29°44' W 095°03'0 0.0
2017-Oct-31 00:30N 29°44' W 095°03'0 0.0
2017-Oct-31 00:00N 29°44' W 095°03'0 0.0
2017-Oct-30 23:30N 29°44' W 095°03'0 0.0
2017-Oct-30 23:00N 29°44' W 095°03'0 0.3
2017-Oct-30 22:30N 29°44' W 095°03'2 3.3
2017-Oct-30 21:54N 29°46' W 095°04'2 3.5
2017-Oct-30 21:25N 29°45' W 095°06'2 4.0
2017-Oct-30 20:57N 29°44' W 095°08'2 4.0
2017-Oct-30 20:23N 29°45' W 095°11'2 4.1
2017-Oct-30 20:00N 29°44' W 095°12'1 0.2
2017-Oct-30 11:38N 29°44' W 095°14'0 0.0
2017-Oct-30 11:30N 29°44' W 095°14'0 0.0
2017-Oct-30 11:00N 29°44' W 095°14'0 0.0
2017-Oct-30 10:30N 29°44' W 095°14'0 0.0
2017-Oct-30 10:00N 29°44' W 095°14'0 0.0
2017-Oct-30 09:30N 29°44' W 095°14'0 0.0
2017-Oct-30 08:58N 29°44' W 095°14'0 0.0
2017-Oct-30 07:54N 29°44' W 095°14'0 0.0
2017-Oct-30 07:28N 29°44' W 095°14'0 0.0
2017-Oct-30 07:00N 29°44' W 095°14'0 0.0
2017-Oct-30 06:30N 29°44' W 095°14'0 0.0
2017-Oct-30 06:00N 29°44' W 095°14'0 0.0
2017-Oct-30 05:30N 29°44' W 095°14'0 0.0
2017-Oct-30 05:00N 29°44' W 095°14'0 0.0
2017-Oct-30 04:30N 29°44' W 095°14'0 0.0
2017-Oct-30 04:00N 29°44' W 095°14'0 0.0
2017-Oct-30 03:30N 29°44' W 095°14'0 0.0
2017-Oct-30 03:00N 29°44' W 095°14'0 0.0
2017-Oct-30 02:30N 29°44' W 095°14'0 0.0
2017-Oct-30 02:00N 29°44' W 095°14'0 0.1
2017-Oct-30 01:30N 29°44' W 095°14'0 0.0
2017-Oct-30 01:00N 29°44' W 095°14'1 1.5
2017-Oct-30 00:23N 29°44' W 095°13'1 2.8
2017-Oct-29 23:58N 29°45' W 095°12'2 3.4
2017-Oct-29 23:30N 29°45' W 095°10'2 4.0
2017-Oct-29 22:59N 29°44' W 095°07'2 4.7
2017-Oct-29 22:29N 29°46' W 095°05'1 0.4
2017-Oct-29 21:06N 29°46' W 095°05'1 5.7
2017-Oct-29 21:00N 29°45' W 095°04'2 3.5
2017-Oct-29 20:29N 29°44' W 095°03'0 0.0
2017-Oct-29 15:42N 29°44' W 095°03'0 0.0
2017-Oct-29 15:27N 29°44' W 095°03'0 0.0
2017-Oct-29 14:06N 29°44' W 095°03'0 0.0
2017-Oct-29 13:53N 29°44' W 095°03'4 0.1
2017-Oct-28 06:54N 29°47' W 095°05'0 0.0
2017-Oct-28 06:02N 29°47' W 095°05'0 0.3
2017-Oct-28 05:55N 29°47' W 095°05'0 0.0
2017-Oct-28 03:45N 29°47' W 095°05'0 0.0
2017-Oct-28 03:30N 29°47' W 095°05'2 0.7
2017-Oct-28 01:08N 29°46' W 095°05'1 6.1
2017-Oct-28 00:55N 29°45' W 095°06'0 0.0
2017-Oct-28 00:29N 29°45' W 095°06'  

Dump ship's entire track history